Terminal Aerodrome Forecast
Issued by NWS Binghamton, NY

Home | Current Version | Previous Version | Text Only | Print | Product List | Glossary On
Versions: 1 2 3 4 5 6 7 8 9 10 11 12 13 14 15 16 17
601
FTUS41 KBGM 281130
TAFAVP
TAF
KAVP 281130Z 2812/2912 07007KT P6SM SCT250
     FM281800 07007KT P6SM BKN080
     FM290000 07005KT P6SM OVC040
     FM290600 07005KT 4SM -SHRA BR OVC022=

USA.gov is the U.S. government's official web portal to all federal, state and local government web resources and services.